createdAt,value
2017-09-15T00:00:17.762Z,0
2017-09-15T00:01:23.157Z,0
2017-09-15T00:02:29.833Z,0
2017-09-15T00:03:39.108Z,0
2017-09-15T00:04:47.158Z,0
2017-09-15T00:05:56.681Z,0
2017-09-15T00:07:04.115Z,0
2017-09-15T00:08:14.638Z,0
2017-09-15T00:09:26.159Z,0
2017-09-15T00:10:36.607Z,0
2017-09-15T00:11:41.197Z,0
2017-09-15T00:12:46.427Z,0
2017-09-15T00:13:53.162Z,0
2017-09-15T00:14:58.220Z,0
2017-09-15T00:16:04.617Z,0
2017-09-15T00:17:11.677Z,0
2017-09-15T00:18:23.117Z,0
2017-09-15T00:19:31.162Z,0
2017-09-15T00:20:39.107Z,0
2017-09-15T00:21:44.282Z,0
2017-09-15T00:22:51.742Z,0
2017-09-15T00:24:00.608Z,0
2017-09-15T00:25:08.261Z,0
2017-09-15T00:26:16.336Z,0
2017-09-15T00:27:24.681Z,0
2017-09-15T00:28:29.876Z,0
2017-09-15T00:29:37.113Z,0
2017-09-15T00:30:42.234Z,0
2017-09-15T00:31:48.607Z,0
2017-09-15T00:32:54.108Z,0
2017-09-15T00:34:02.607Z,0
2017-09-15T00:35:09.697Z,0
2017-09-15T00:36:17.191Z,0
2017-09-15T00:37:24.608Z,0
2017-09-15T00:38:29.613Z,0
2017-09-15T00:39:35.166Z,0
2017-09-15T00:40:41.640Z,0
2017-09-15T00:41:45.499Z,0
2017-09-15T00:42:52.107Z,0
2017-09-15T00:43:58.036Z,0
2017-09-15T00:45:03.654Z,0
2017-09-15T00:46:11.605Z,0
2017-09-15T00:47:15.781Z,0
2017-09-15T00:48:22.280Z,0
2017-09-15T00:49:30.812Z,0
2017-09-15T00:50:36.743Z,0
2017-09-15T00:51:45.732Z,0
2017-09-15T00:52:51.159Z,0
2017-09-15T00:53:56.168Z,0
2017-09-15T00:55:02.242Z,0
2017-09-15T00:56:04.604Z,0
2017-09-15T00:57:09.115Z,0
2017-09-15T00:58:15.078Z,0
2017-09-15T00:59:19.015Z,0
2017-09-15T01:00:20.934Z,0
2017-09-15T01:01:22.590Z,0
2017-09-15T01:02:25.408Z,0
2017-09-15T01:03:29.192Z,0
2017-09-15T01:04:33.602Z,0
2017-09-15T01:05:35.755Z,0
2017-09-15T01:06:37.304Z,0
2017-09-15T01:07:39.818Z,0
2017-09-15T01:08:42.698Z,0
2017-09-15T01:09:46.111Z,0
2017-09-15T01:10:47.616Z,0
2017-09-15T01:11:51.115Z,0
2017-09-15T01:12:53.141Z,0
2017-09-15T01:13:54.989Z,0
2017-09-15T01:14:57.196Z,0
2017-09-15T01:15:59.810Z,0
2017-09-15T01:17:02.901Z,0
2017-09-15T01:18:06.249Z,0
2017-09-15T01:19:09.224Z,0
2017-09-15T01:20:13.216Z,0
2017-09-15T01:21:17.275Z,0
2017-09-15T01:22:21.611Z,0
2017-09-15T01:23:25.472Z,0
2017-09-15T01:24:28.768Z,0
2017-09-15T01:25:30.421Z,0
2017-09-15T01:26:34.210Z,0
2017-09-15T01:27:37.438Z,0
2017-09-15T01:28:39.611Z,0
2017-09-15T01:29:41.434Z,0
2017-09-15T01:30:43.778Z,0
2017-09-15T01:31:46.790Z,0
2017-09-15T01:32:49.832Z,0
2017-09-15T01:33:51.946Z,0
2017-09-15T01:34:53.602Z,0
2017-09-15T01:35:55.252Z,0
2017-09-15T01:36:58.292Z,0
2017-09-15T01:38:01.488Z,0
2017-09-15T01:39:03.928Z,0
2017-09-15T01:40:07.184Z,0
2017-09-15T01:41:10.781Z,0
2017-09-15T01:42:15.171Z,0
2017-09-15T01:43:16.825Z,0
2017-09-15T01:44:19.778Z,0
2017-09-15T01:45:23.111Z,0
2017-09-15T01:46:26.012Z,0
2017-09-15T01:47:29.460Z,0
2017-09-15T01:48:32.607Z,0
2017-09-15T01:49:35.774Z,0
2017-09-15T01:50:38.246Z,0
2017-09-15T01:51:39.909Z,0
2017-09-15T01:52:42.256Z,0
2017-09-15T01:53:45.616Z,0
2017-09-15T01:54:47.261Z,0
2017-09-15T01:55:49.483Z,0
2017-09-15T02:01:49.821Z,0
2017-09-15T02:02:52.414Z,0
2017-09-15T02:03:54.991Z,0
2017-09-15T02:04:57.742Z,0
2017-09-15T02:06:00.813Z,0
2017-09-15T02:07:03.902Z,0
2017-09-15T02:08:07.275Z,0
2017-09-15T02:09:10.383Z,0
2017-09-15T02:10:14.285Z,0
2017-09-15T02:11:18.400Z,0
2017-09-15T02:12:22.429Z,0
2017-09-15T02:13:25.856Z,0
2017-09-15T02:14:28.998Z,0
2017-09-15T02:15:32.137Z,0
2017-09-15T02:16:35.820Z,0
2017-09-15T02:17:37.469Z,0
2017-09-15T02:18:39.581Z,0
2017-09-15T02:19:44.319Z,0
2017-09-15T02:20:47.362Z,0
2017-09-15T02:21:51.279Z,0
2017-09-15T02:22:53.581Z,0
2017-09-15T02:23:56.480Z,0
2017-09-15T02:24:59.893Z,0
2017-09-15T02:26:02.943Z,0
2017-09-15T02:27:06.199Z,0
2017-09-15T02:28:10.433Z,0
2017-09-15T02:29:15.731Z,0
2017-09-15T02:30:18.163Z,0
2017-09-15T02:31:21.232Z,0
2017-09-15T02:32:24.458Z,0
2017-09-15T02:33:29.732Z,0
2017-09-15T02:34:32.810Z,0
2017-09-15T02:35:36.767Z,0
2017-09-15T02:36:39.803Z,0
2017-09-15T02:37:42.122Z,0
2017-09-15T02:38:45.848Z,0
2017-09-15T02:39:49.857Z,0
2017-09-15T02:40:53.232Z,0
2017-09-15T02:41:56.931Z,0
2017-09-15T02:43:01.787Z,0
2017-09-15T02:44:04.314Z,0
2017-09-15T02:45:06.723Z,0
2017-09-15T02:46:10.929Z,0
2017-09-15T02:47:15.126Z,0
2017-09-15T02:48:17.531Z,0
2017-09-15T02:49:19.884Z,0
2017-09-15T02:50:23.962Z,0
2017-09-15T02:51:27.601Z,0
2017-09-15T02:52:31.338Z,0
2017-09-15T02:53:34.338Z,0
2017-09-15T02:54:37.231Z,0
2017-09-15T02:55:40.810Z,0
2017-09-15T02:56:44.733Z,0
2017-09-15T02:57:46.999Z,0
2017-09-15T02:58:50.350Z,0
2017-09-15T02:59:54.789Z,0
2017-09-15T03:00:57.908Z,0
2017-09-15T03:02:00.387Z,0
2017-09-15T03:03:03.360Z,0
2017-09-15T03:04:05.754Z,0
2017-09-15T03:05:11.732Z,0
2017-09-15T03:06:14.418Z,0
2017-09-15T03:07:18.469Z,0
2017-09-15T03:08:20.110Z,0
2017-09-15T03:09:23.326Z,0
2017-09-15T03:10:26.737Z,0
2017-09-15T03:11:27.837Z,0
2017-09-15T03:12:32.459Z,0
2017-09-15T03:13:35.331Z,0
2017-09-15T03:14:37.735Z,0
2017-09-15T03:15:40.788Z,0
2017-09-15T03:16:44.920Z,0
2017-09-15T03:17:46.570Z,0
2017-09-15T03:18:49.823Z,0
2017-09-15T03:19:52.807Z,0
2017-09-15T03:20:55.969Z,0
2017-09-15T03:21:59.104Z,0
2017-09-15T03:23:02.307Z,0
2017-09-15T03:24:05.738Z,0
2017-09-15T03:25:08.957Z,0
2017-09-15T03:26:13.073Z,0
2017-09-15T03:27:16.031Z,0
2017-09-15T03:28:20.843Z,0
2017-09-15T03:29:25.039Z,0
2017-09-15T03:30:27.342Z,0
2017-09-15T03:31:29.572Z,0
2017-09-15T03:32:31.900Z,0
2017-09-15T03:33:38.734Z,0
2017-09-15T03:34:40.035Z,0
2017-09-15T03:35:44.892Z,0
2017-09-15T03:36:47.247Z,0
2017-09-15T03:37:48.898Z,0
2017-09-15T03:38:51.291Z,0
2017-09-15T03:39:55.235Z,0
2017-09-15T03:40:55.998Z,0
2017-09-15T03:41:57.649Z,0
2017-09-15T03:42:59.804Z,0
2017-09-15T03:44:03.931Z,0
2017-09-15T03:45:08.290Z,0
2017-09-15T03:46:12.161Z,0
2017-09-15T03:47:14.726Z,0
2017-09-15T03:48:17.237Z,0
2017-09-15T03:49:20.837Z,0
2017-09-15T03:50:23.306Z,0
2017-09-15T03:51:26.666Z,0
2017-09-15T03:52:29.262Z,0
2017-09-15T03:53:32.012Z,0
2017-09-15T03:54:35.352Z,0
2017-09-15T03:55:38.453Z,0
2017-09-15T03:56:42.436Z,0
2017-09-15T03:57:46.516Z,0
2017-09-15T03:58:49.673Z,0
2017-09-15T03:59:52.739Z,0
2017-09-15T04:00:57.738Z,0
2017-09-15T04:02:00.742Z,0
2017-09-15T04:03:04.125Z,0
2017-09-15T04:04:06.808Z,0
2017-09-15T04:05:10.990Z,0
2017-09-15T04:06:13.856Z,0
2017-09-15T04:07:16.114Z,0
2017-09-15T04:08:18.555Z,0
2017-09-15T04:09:22.447Z,0
2017-09-15T04:10:25.906Z,0
2017-09-15T04:11:28.856Z,0
2017-09-15T04:12:31.343Z,0
2017-09-15T04:13:33.953Z,0
2017-09-15T04:14:37.561Z,0
2017-09-15T04:15:41.025Z,0
2017-09-15T04:16:44.012Z,0
2017-09-15T04:17:46.398Z,0
2017-09-15T04:18:48.807Z,0
2017-09-15T04:19:54.884Z,0
2017-09-15T04:20:58.802Z,0
2017-09-15T04:22:02.008Z,0
2017-09-15T04:23:05.648Z,0
2017-09-15T04:24:09.057Z,0
2017-09-15T04:25:11.654Z,0
2017-09-15T04:26:15.741Z,0
2017-09-15T04:27:16.964Z,0
2017-09-15T04:28:18.614Z,0
2017-09-15T04:29:23.305Z,0
2017-09-15T04:30:27.242Z,0
2017-09-15T04:31:28.595Z,0
2017-09-15T04:32:33.647Z,0
2017-09-15T04:33:36.583Z,0
2017-09-15T04:34:43.353Z,0
2017-09-15T04:35:49.355Z,0
2017-09-15T04:36:52.560Z,0
2017-09-15T04:37:54.970Z,0
2017-09-15T04:38:59.847Z,0
2017-09-15T04:40:03.743Z,0
2017-09-15T04:41:08.539Z,0
2017-09-15T04:42:14.239Z,0
2017-09-15T04:43:15.524Z,0
2017-09-15T04:44:19.240Z,0
2017-09-15T04:45:22.787Z,0
2017-09-15T04:46:25.217Z,0
2017-09-15T04:47:26.871Z,0
2017-09-15T04:48:30.299Z,0
2017-09-15T04:49:33.463Z,0
2017-09-15T04:50:37.465Z,0
2017-09-15T04:51:39.117Z,0
2017-09-15T04:52:41.705Z,0
2017-09-15T04:53:43.860Z,0
2017-09-15T04:54:47.941Z,0
2017-09-15T04:55:51.576Z,0
2017-09-15T04:56:53.815Z,0
2017-09-15T04:57:57.767Z,0
2017-09-15T04:59:01.244Z,5
2017-09-15T05:00:04.799Z,5
2017-09-15T05:01:08.916Z,10
2017-09-15T05:02:12.012Z,15
2017-09-15T05:03:13.683Z,15
2017-09-15T05:04:20.240Z,15
2017-09-15T05:05:25.380Z,15
2017-09-15T05:06:28.003Z,15
2017-09-15T05:07:32.288Z,15
2017-09-15T05:08:35.410Z,15
2017-09-15T05:09:37.077Z,15
2017-09-15T05:10:39.499Z,20
2017-09-15T05:11:42.608Z,25
2017-09-15T05:12:44.853Z,25
2017-09-15T05:13:49.863Z,25
2017-09-15T05:14:54.741Z,20
2017-09-15T05:15:56.860Z,15
2017-09-15T05:16:59.893Z,20
2017-09-15T05:18:02.245Z,20
2017-09-15T05:19:05.203Z,25
2017-09-15T05:20:08.334Z,30
2017-09-15T05:21:10.562Z,30
2017-09-15T05:22:13.365Z,25
2017-09-15T05:23:16.544Z,30
2017-09-15T05:24:19.561Z,35
2017-09-15T05:25:23.246Z,35
2017-09-15T05:26:25.321Z,30
2017-09-15T05:27:29.533Z,25
2017-09-15T05:28:32.675Z,20
2017-09-15T05:29:34.965Z,20
2017-09-15T05:30:37.560Z,15
2017-09-15T05:31:41.567Z,15
2017-09-15T05:32:46.245Z,20
2017-09-15T05:33:49.749Z,25
2017-09-15T05:34:52.548Z,35
2017-09-15T05:35:55.908Z,35
2017-09-15T05:37:01.382Z,35
2017-09-15T05:38:09.251Z,40
2017-09-15T05:39:11.743Z,35
2017-09-15T05:40:15.778Z,35
2017-09-15T05:41:18.181Z,25
2017-09-15T05:42:19.828Z,30
2017-09-15T05:43:24.812Z,30
2017-09-15T05:44:27.004Z,45
2017-09-15T05:45:30.542Z,70
2017-09-15T05:46:32.580Z,80
2017-09-15T05:47:35.824Z,85
2017-09-15T05:48:39.852Z,70
2017-09-15T05:49:42.096Z,70
2017-09-15T05:50:46.570Z,95
2017-09-15T05:51:48.226Z,120
2017-09-15T05:52:50.601Z,135
2017-09-15T05:53:55.352Z,125
2017-09-15T05:54:59.806Z,115
2017-09-15T06:01:23.236Z,100
2017-09-15T06:02:25.581Z,100
2017-09-15T06:03:28.775Z,110
2017-09-15T06:04:30.462Z,100
2017-09-15T06:05:33.437Z,70
2017-09-15T06:06:37.386Z,60
2017-09-15T06:07:40.975Z,50
2017-09-15T06:08:44.017Z,40
2017-09-15T06:09:48.925Z,30
2017-09-15T06:10:51.776Z,35
2017-09-15T06:11:55.882Z,40
2017-09-15T06:12:57.547Z,40
2017-09-15T06:14:01.404Z,45
2017-09-15T06:15:04.659Z,60
2017-09-15T06:16:06.924Z,70
2017-09-15T06:17:10.333Z,80
2017-09-15T06:18:13.874Z,80
2017-09-15T06:19:15.532Z,90
2017-09-15T06:20:19.555Z,100
2017-09-15T06:21:23.725Z,105
2017-09-15T06:22:26.144Z,125
2017-09-15T06:23:27.831Z,110
2017-09-15T06:24:31.939Z,105
2017-09-15T06:25:37.508Z,105
2017-09-15T06:26:41.514Z,120
2017-09-15T06:27:45.026Z,95
2017-09-15T06:28:48.013Z,90
2017-09-15T06:29:50.849Z,115
2017-09-15T06:30:55.404Z,155
2017-09-15T06:31:57.869Z,185
2017-09-15T06:32:59.534Z,195
2017-09-15T06:34:02.782Z,230
2017-09-15T06:35:04.436Z,225
2017-09-15T06:36:08.272Z,190
2017-09-15T06:37:12.335Z,175
2017-09-15T06:38:14.005Z,185
2017-09-15T06:39:18.729Z,195
2017-09-15T06:40:20.379Z,215
2017-09-15T06:41:22.971Z,225
2017-09-15T06:42:26.228Z,210
2017-09-15T06:43:28.826Z,210
2017-09-15T06:44:35.227Z,225
2017-09-15T06:45:40.871Z,235
2017-09-15T06:46:44.886Z,290
2017-09-15T06:47:49.422Z,315
2017-09-15T06:48:52.442Z,295
2017-09-15T06:49:57.450Z,265
2017-09-15T06:51:01.027Z,245
2017-09-15T06:52:04.095Z,240
2017-09-15T06:53:07.011Z,255
2017-09-15T06:54:10.801Z,275
2017-09-15T06:55:13.343Z,300
2017-09-15T06:56:18.228Z,330
2017-09-15T06:57:23.736Z,345
2017-09-15T06:58:26.126Z,345
2017-09-15T06:59:27.809Z,310
2017-09-15T07:00:30.684Z,245
2017-09-15T07:01:33.867Z,225
2017-09-15T07:02:36.036Z,210
2017-09-15T07:03:38.790Z,190
2017-09-15T07:04:42.032Z,175
2017-09-15T07:05:47.846Z,170
2017-09-15T07:06:52.050Z,170
2017-09-15T07:07:54.244Z,160
2017-09-15T07:08:56.803Z,165
2017-09-15T07:10:01.450Z,215
2017-09-15T07:11:03.802Z,215
2017-09-15T07:12:06.889Z,245
2017-09-15T07:13:10.950Z,300
2017-09-15T07:14:14.232Z,250
2017-09-15T07:15:15.915Z,205
2017-09-15T07:16:19.284Z,210
2017-09-15T07:17:21.516Z,165
2017-09-15T07:18:24.271Z,140
2017-09-15T07:19:28.028Z,150
2017-09-15T07:20:31.333Z,150
2017-09-15T07:21:33.645Z,150
2017-09-15T07:22:35.952Z,140
2017-09-15T07:23:40.175Z,135
2017-09-15T07:24:43.948Z,140
2017-09-15T07:25:46.598Z,160
2017-09-15T07:26:49.689Z,160
2017-09-15T07:27:53.467Z,150
2017-09-15T07:28:55.133Z,160
2017-09-15T07:29:58.853Z,175
2017-09-15T07:31:02.887Z,170
2017-09-15T07:32:07.988Z,175
2017-09-15T07:33:11.065Z,185
2017-09-15T07:34:15.796Z,195
2017-09-15T07:35:18.114Z,210
2017-09-15T07:36:22.735Z,220
2017-09-15T07:37:24.281Z,190
2017-09-15T07:38:25.934Z,150
2017-09-15T07:39:29.444Z,150
2017-09-15T07:40:31.832Z,185
2017-09-15T07:41:36.602Z,210
2017-09-15T07:42:39.771Z,225
2017-09-15T07:43:41.425Z,235
2017-09-15T07:44:46.354Z,240
2017-09-15T07:45:49.537Z,225
2017-09-15T07:46:53.733Z,230
2017-09-15T07:47:54.916Z,220
2017-09-15T07:48:58.268Z,225
2017-09-15T07:50:00.023Z,215
2017-09-15T07:51:01.685Z,215
2017-09-15T07:52:04.741Z,230
2017-09-15T07:53:06.322Z,235
2017-09-15T07:54:11.819Z,200
2017-09-15T07:55:13.471Z,205
2017-09-15T07:56:15.129Z,225
2017-09-15T07:57:18.795Z,220
2017-09-15T07:58:21.368Z,230
2017-09-15T07:59:23.736Z,260
2017-09-15T08:00:26.585Z,285
2017-09-15T08:01:29.676Z,340
2017-09-15T08:02:32.739Z,405
2017-09-15T08:03:35.743Z,480
2017-09-15T08:04:39.058Z,555
2017-09-15T08:05:41.398Z,650
2017-09-15T08:06:44.419Z,705
2017-09-15T08:07:48.850Z,750
2017-09-15T08:08:51.531Z,665
2017-09-15T08:09:55.797Z,580
2017-09-15T08:10:58.318Z,515
2017-09-15T08:12:01.814Z,505
2017-09-15T08:13:04.390Z,495
2017-09-15T08:14:07.456Z,435
2017-09-15T08:15:09.124Z,470
2017-09-15T08:16:13.775Z,605
2017-09-15T08:17:14.604Z,655
2017-09-15T08:18:19.316Z,795
2017-09-15T08:19:20.996Z,1045
2017-09-15T08:20:23.490Z,1210
2017-09-15T08:21:25.864Z,1180
2017-09-15T08:22:28.118Z,1215
2017-09-15T08:23:31.531Z,1245
2017-09-15T08:24:34.063Z,1415
2017-09-15T08:25:40.625Z,1380
2017-09-15T08:26:44.240Z,1400
2017-09-15T08:27:46.811Z,1410
2017-09-15T08:28:49.937Z,1135
2017-09-15T08:29:53.234Z,1175
2017-09-15T08:30:57.483Z,1025
2017-09-15T08:32:01.307Z,870
2017-09-15T08:33:02.975Z,915
2017-09-15T08:34:05.918Z,1035
2017-09-15T08:35:09.830Z,1080
2017-09-15T08:36:14.397Z,990
2017-09-15T08:37:18.790Z,845
2017-09-15T08:38:21.329Z,955
2017-09-15T08:39:24.356Z,1220
2017-09-15T08:40:26.926Z,1245
2017-09-15T08:41:31.007Z,1155
2017-09-15T08:42:32.689Z,1280
2017-09-15T08:43:34.990Z,1285
2017-09-15T08:44:38.383Z,1665
2017-09-15T08:45:43.245Z,1460
2017-09-15T08:46:44.913Z,1230
2017-09-15T08:47:47.389Z,915
2017-09-15T08:48:50.806Z,930
2017-09-15T08:49:55.310Z,1045
2017-09-15T08:50:57.589Z,1130
2017-09-15T08:52:00.816Z,1105
2017-09-15T08:53:03.882Z,1125
2017-09-15T08:54:07.838Z,1115
2017-09-15T08:55:09.518Z,1150
2017-09-15T08:56:12.954Z,1135
2017-09-15T08:57:15.539Z,1065
2017-09-15T08:58:19.394Z,960
2017-09-15T08:59:24.491Z,880
2017-09-15T09:00:27.945Z,785
2017-09-15T09:01:30.379Z,760
2017-09-15T09:02:32.950Z,640
2017-09-15T09:03:35.582Z,515
2017-09-15T09:04:37.819Z,520
2017-09-15T09:05:41.907Z,520
2017-09-15T09:06:43.576Z,410
2017-09-15T09:07:47.581Z,375
2017-09-15T09:08:50.731Z,535
2017-09-15T09:09:53.251Z,725
2017-09-15T09:10:55.897Z,865
2017-09-15T09:11:59.566Z,920
2017-09-15T09:13:02.812Z,1070
2017-09-15T09:14:07.439Z,1065
2017-09-15T09:15:09.983Z,1165
2017-09-15T09:16:12.509Z,1115
2017-09-15T09:17:15.901Z,960
2017-09-15T09:18:20.022Z,1100
2017-09-15T09:19:24.323Z,1080
2017-09-15T09:20:26.584Z,1060
2017-09-15T09:21:31.376Z,1070
2017-09-15T09:22:34.824Z,1010
2017-09-15T09:23:39.458Z,940
2017-09-15T09:24:46.251Z,905
2017-09-15T09:25:49.250Z,890
2017-09-15T09:26:51.577Z,860
2017-09-15T09:27:53.918Z,825
2017-09-15T09:28:56.252Z,835
2017-09-15T09:29:58.864Z,840
2017-09-15T09:31:02.375Z,805
2017-09-15T09:32:06.444Z,720
2017-09-15T09:33:08.756Z,610
2017-09-15T09:34:10.165Z,535
2017-09-15T09:35:15.445Z,495
2017-09-15T09:36:18.762Z,495
2017-09-15T09:37:21.753Z,485
2017-09-15T09:38:24.214Z,610
2017-09-15T09:39:26.643Z,855
2017-09-15T09:40:29.097Z,995
2017-09-15T09:41:31.659Z,1025
2017-09-15T09:42:35.001Z,950
2017-09-15T09:43:37.351Z,895
2017-09-15T09:44:40.256Z,750
2017-09-15T09:45:44.269Z,635
2017-09-15T09:46:47.755Z,760
2017-09-15T09:47:49.330Z,1340
2017-09-15T09:48:52.396Z,1130
2017-09-15T09:49:54.837Z,925
2017-09-15T09:50:57.013Z,735
2017-09-15T09:52:00.309Z,845
2017-09-15T09:53:03.145Z,1060
2017-09-15T09:54:06.217Z,1135
2017-09-15T09:55:10.260Z,1130
2017-09-15T10:01:06.815Z,1090
2017-09-15T10:02:10.175Z,1115
2017-09-15T10:03:13.277Z,1035
2017-09-15T10:04:15.838Z,965
2017-09-15T10:05:18.960Z,865
2017-09-15T10:06:22.505Z,775
2017-09-15T10:07:25.924Z,750
2017-09-15T10:08:29.104Z,770
2017-09-15T10:09:42.715Z,780
2017-09-15T10:10:46.523Z,740
2017-09-15T10:11:49.771Z,660
2017-09-15T10:12:53.582Z,575
2017-09-15T10:13:58.360Z,515
2017-09-15T10:15:02.715Z,425
2017-09-15T10:16:05.215Z,360
2017-09-15T10:17:06.874Z,405
2017-09-15T10:18:11.831Z,495
2017-09-15T10:19:14.717Z,535
2017-09-15T10:20:18.890Z,525
2017-09-15T10:21:22.776Z,495
2017-09-15T10:22:24.362Z,485
2017-09-15T10:23:26.567Z,485
2017-09-15T10:24:28.234Z,470
2017-09-15T10:25:30.635Z,475
2017-09-15T10:26:32.315Z,505
2017-09-15T10:27:36.245Z,535
2017-09-15T10:28:38.752Z,540
2017-09-15T10:29:42.021Z,530
2017-09-15T10:30:46.610Z,535
2017-09-15T10:31:49.578Z,585
2017-09-15T10:32:53.657Z,645
2017-09-15T10:33:55.329Z,670
2017-09-15T10:34:59.343Z,680
2017-09-15T10:36:02.464Z,685
2017-09-15T10:37:05.109Z,695
2017-09-15T10:38:08.276Z,705
2017-09-15T10:39:08.962Z,730
2017-09-15T10:40:12.273Z,750
2017-09-15T10:41:15.940Z,715
2017-09-15T10:42:19.346Z,620
2017-09-15T10:43:21.976Z,515
2017-09-15T10:44:27.280Z,455
2017-09-15T10:45:28.086Z,455
2017-09-15T10:46:32.175Z,535
2017-09-15T10:47:33.840Z,680
2017-09-15T10:48:38.831Z,780
2017-09-15T10:49:40.487Z,815
2017-09-15T10:50:43.740Z,805
2017-09-15T10:51:46.947Z,760
2017-09-15T10:52:51.454Z,695
2017-09-15T10:53:53.847Z,720
2017-09-15T10:54:58.010Z,735
2017-09-15T10:55:59.670Z,680
2017-09-15T10:57:03.579Z,615
2017-09-15T10:58:06.505Z,595
2017-09-15T10:59:11.423Z,620
2017-09-15T11:00:13.087Z,640
2017-09-15T11:01:16.917Z,640
2017-09-15T11:02:19.184Z,650
2017-09-15T11:03:24.993Z,710
2017-09-15T11:04:29.614Z,755
2017-09-15T11:05:32.577Z,770
2017-09-15T11:06:34.835Z,850
2017-09-15T11:07:39.495Z,960
2017-09-15T11:08:44.878Z,1020
2017-09-15T11:09:50.366Z,1045
2017-09-15T11:10:54.066Z,1070
2017-09-15T11:11:58.781Z,1100
2017-09-15T11:12:59.741Z,1090
2017-09-15T11:14:02.949Z,995
2017-09-15T11:15:05.920Z,895
2017-09-15T11:16:10.005Z,785
2017-09-15T11:17:12.393Z,705
2017-09-15T11:18:14.567Z,665
2017-09-15T11:19:17.842Z,630
2017-09-15T11:20:20.048Z,585
2017-09-15T11:21:23.141Z,540
2017-09-15T11:22:25.506Z,590
2017-09-15T11:23:27.864Z,730
2017-09-15T11:24:32.356Z,840
2017-09-15T11:25:41.286Z,845
2017-09-15T11:26:42.833Z,810
2017-09-15T11:27:45.981Z,790
2017-09-15T11:28:50.249Z,760
2017-09-15T11:29:53.360Z,740
2017-09-15T11:30:55.786Z,710
2017-09-15T11:32:00.292Z,690
2017-09-15T11:33:01.919Z,700
2017-09-15T11:34:04.408Z,785
2017-09-15T11:35:07.880Z,790
2017-09-15T11:36:11.967Z,735
2017-09-15T11:37:15.557Z,680
2017-09-15T11:38:19.579Z,700
2017-09-15T11:39:21.763Z,840
2017-09-15T11:40:26.288Z,1045
2017-09-15T11:41:27.871Z,1000
2017-09-15T11:42:31.530Z,1050
2017-09-15T11:43:34.343Z,1075
2017-09-15T11:44:36.854Z,1080
2017-09-15T11:45:39.788Z,1070
2017-09-15T11:46:40.861Z,1060
2017-09-15T11:47:43.940Z,1020
2017-09-15T11:48:47.290Z,1020
2017-09-15T11:49:50.478Z,1010
2017-09-15T11:50:52.149Z,1020
2017-09-15T11:51:54.396Z,1025
2017-09-15T11:52:57.834Z,1010
2017-09-15T11:54:00.078Z,975
2017-09-15T11:55:02.163Z,925
2017-09-15T11:56:05.292Z,800
2017-09-15T11:57:07.112Z,640
2017-09-15T11:58:11.315Z,510
2017-09-15T11:59:13.861Z,435
2017-09-15T12:00:17.851Z,400
2017-09-15T12:01:25.388Z,535
2017-09-15T12:02:27.057Z,795
2017-09-15T12:03:28.762Z,1000
2017-09-15T12:04:30.436Z,980
2017-09-15T12:05:32.597Z,1355
2017-09-15T12:06:34.298Z,1255
2017-09-15T12:07:37.954Z,1205
2017-09-15T12:08:42.078Z,1220
2017-09-15T12:09:44.957Z,1185
2017-09-15T12:10:47.157Z,1135
2017-09-15T12:11:49.468Z,1105
2017-09-15T12:12:51.852Z,1100
2017-09-15T12:13:55.058Z,1120
2017-09-15T12:14:56.807Z,1120
2017-09-15T12:15:59.393Z,1120
2017-09-15T12:17:02.017Z,1065
2017-09-15T12:18:15.176Z,1025
2017-09-15T12:19:19.907Z,995
2017-09-15T12:20:21.635Z,985
2017-09-15T12:21:24.873Z,975
2017-09-15T12:22:27.779Z,935
2017-09-15T12:23:30.078Z,815
2017-09-15T12:24:31.743Z,760
2017-09-15T12:25:33.390Z,810
2017-09-15T12:26:36.046Z,795
2017-09-15T12:27:39.167Z,995
2017-09-15T12:28:40.840Z,1065
2017-09-15T12:29:43.299Z,1155
2017-09-15T12:30:45.083Z,1195
2017-09-15T12:31:47.589Z,1125
2017-09-15T12:32:50.799Z,1085
2017-09-15T12:33:53.362Z,1060
2017-09-15T12:34:57.378Z,1060
2017-09-15T12:36:01.517Z,1005
2017-09-15T12:37:03.781Z,1015
2017-09-15T12:38:09.886Z,1015
2017-09-15T12:39:12.078Z,950
2017-09-15T12:40:14.572Z,905
2017-09-15T12:41:17.952Z,885
2017-09-15T12:42:19.629Z,875
2017-09-15T12:43:21.656Z,835
2017-09-15T12:44:23.889Z,830
2017-09-15T12:45:26.083Z,845
2017-09-15T12:46:28.987Z,830
2017-09-15T12:47:31.509Z,795
2017-09-15T12:48:36.200Z,760
2017-09-15T12:49:39.906Z,740
2017-09-15T12:50:43.075Z,735
2017-09-15T12:51:45.409Z,750
2017-09-15T12:52:48.535Z,800
2017-09-15T12:53:51.978Z,955
2017-09-15T12:54:57.446Z,1030
2017-09-15T12:56:01.961Z,1025
2017-09-15T12:57:04.929Z,1045
2017-09-15T12:58:07.153Z,990
2017-09-15T12:59:10.271Z,965
2017-09-15T13:00:14.559Z,1025
2017-09-15T13:01:17.654Z,1065
2017-09-15T13:02:20.135Z,1060
2017-09-15T13:03:23.007Z,1055
2017-09-15T13:04:26.369Z,1070
2017-09-15T13:05:30.304Z,1075
2017-09-15T13:06:32.041Z,1010
2017-09-15T13:07:33.714Z,995
2017-09-15T13:08:36.117Z,965
2017-09-15T13:09:40.467Z,925
2017-09-15T13:10:43.032Z,830
2017-09-15T13:11:46.003Z,715
2017-09-15T13:12:49.444Z,595
2017-09-15T13:13:53.502Z,545
2017-09-15T13:14:56.354Z,725
2017-09-15T13:15:59.929Z,825
2017-09-15T13:17:01.599Z,955
2017-09-15T13:18:03.270Z,940
2017-09-15T13:19:05.904Z,930
2017-09-15T13:20:12.658Z,930
2017-09-15T13:21:14.922Z,920
2017-09-15T13:22:18.310Z,955
2017-09-15T13:23:20.756Z,1015
2017-09-15T13:24:24.812Z,1050
2017-09-15T13:25:27.238Z,1075
2017-09-15T13:26:29.578Z,1090
2017-09-15T13:27:33.084Z,1045
2017-09-15T13:28:35.363Z,920
2017-09-15T13:29:39.458Z,790
2017-09-15T13:30:43.311Z,690
2017-09-15T13:31:45.081Z,610
2017-09-15T13:32:49.630Z,525
2017-09-15T13:33:53.415Z,425
2017-09-15T13:34:55.812Z,290
2017-09-15T13:35:57.543Z,195
2017-09-15T13:37:00.115Z,150
2017-09-15T13:38:03.403Z,125
2017-09-15T13:39:05.066Z,110
2017-09-15T13:40:06.741Z,105
2017-09-15T13:41:10.822Z,100
2017-09-15T13:42:14.322Z,95
2017-09-15T13:43:16.409Z,95
2017-09-15T13:44:19.161Z,100
2017-09-15T13:45:20.836Z,95
2017-09-15T13:46:23.858Z,85
2017-09-15T13:47:26.288Z,70
2017-09-15T13:48:29.170Z,55
2017-09-15T13:49:31.343Z,50
2017-09-15T13:50:34.037Z,45
2017-09-15T13:51:38.822Z,40
2017-09-15T13:52:40.432Z,50
2017-09-15T13:53:42.716Z,75
2017-09-15T13:54:45.004Z,110
2017-09-15T13:55:48.111Z,150
2017-09-15T14:01:56.331Z,385
2017-09-15T14:03:00.089Z,380
2017-09-15T14:04:03.288Z,365
2017-09-15T14:05:07.135Z,355
2017-09-15T14:06:09.860Z,350
2017-09-15T14:07:13.687Z,350
2017-09-15T14:08:17.401Z,330
2017-09-15T14:09:19.719Z,295
2017-09-15T14:10:22.928Z,260
2017-09-15T14:11:25.703Z,230
2017-09-15T14:12:28.810Z,210
2017-09-15T14:13:31.811Z,195
2017-09-15T14:14:34.246Z,180
2017-09-15T14:15:37.408Z,160
2017-09-15T14:16:39.858Z,140
2017-09-15T14:17:42.199Z,130
2017-09-15T14:18:45.026Z,120
2017-09-15T14:19:47.945Z,115
2017-09-15T14:20:51.790Z,115
2017-09-15T14:21:54.264Z,115
2017-09-15T14:22:56.522Z,115
2017-09-15T14:24:00.799Z,105
2017-09-15T14:25:02.464Z,80
2017-09-15T14:26:05.716Z,75
2017-09-15T14:27:09.660Z,85
2017-09-15T14:28:13.280Z,95
2017-09-15T14:29:16.730Z,100
2017-09-15T14:30:20.765Z,100
2017-09-15T14:31:23.946Z,100
2017-09-15T14:32:26.915Z,100
2017-09-15T14:33:29.783Z,110
2017-09-15T14:34:35.202Z,130
2017-09-15T14:35:38.933Z,210
2017-09-15T14:36:41.381Z,295
2017-09-15T14:37:46.339Z,430
2017-09-15T14:38:49.259Z,595
2017-09-15T14:39:51.790Z,750
2017-09-15T14:40:54.864Z,845
2017-09-15T14:41:56.526Z,920
2017-09-15T14:42:59.021Z,950
2017-09-15T14:44:02.808Z,945
2017-09-15T14:45:11.222Z,925
2017-09-15T14:46:16.119Z,855
2017-09-15T14:47:18.331Z,770
2017-09-15T14:48:20.856Z,680
2017-09-15T14:49:23.247Z,615
2017-09-15T14:50:25.790Z,550
2017-09-15T14:51:29.219Z,510
2017-09-15T14:52:34.250Z,485
2017-09-15T14:53:41.223Z,460
2017-09-15T14:54:43.761Z,425
2017-09-15T14:55:47.221Z,390
2017-09-15T14:56:50.620Z,360
2017-09-15T14:57:54.728Z,385
2017-09-15T14:58:59.142Z,430
2017-09-15T15:00:01.693Z,375
2017-09-15T15:01:07.757Z,440
2017-09-15T15:02:11.644Z,520
2017-09-15T15:03:13.563Z,545
2017-09-15T15:04:15.909Z,495
2017-09-15T15:05:22.485Z,440
2017-09-15T15:06:26.764Z,425
2017-09-15T15:07:31.415Z,480
2017-09-15T15:08:34.329Z,595
2017-09-15T15:09:36.956Z,685
2017-09-15T15:10:42.850Z,690
2017-09-15T15:11:46.216Z,600
2017-09-15T15:12:50.011Z,475